createdAt,value
2019-01-13T00:04:47.888Z,2.1
2019-01-13T00:09:50.659Z,2.1
2019-01-13T00:14:52.819Z,2.1
2019-01-13T00:19:55.244Z,2.2
2019-01-13T00:24:57.753Z,2.2
2019-01-13T00:30:00.162Z,2.2
2019-01-13T00:35:02.656Z,2.3
2019-01-13T00:40:05.093Z,2.2
2019-01-13T00:45:07.538Z,2.2
2019-01-13T00:50:10.063Z,2.3
2019-01-13T00:55:12.465Z,2.3
2019-01-13T01:00:14.928Z,2.3
2019-01-13T01:05:17.396Z,2.3
2019-01-13T01:10:19.820Z,2.4
2019-01-13T01:15:22.306Z,2.4
2019-01-13T01:20:24.754Z,2.5
2019-01-13T01:25:27.192Z,2.5
2019-01-13T01:30:33.379Z,2.6
2019-01-13T01:35:32.220Z,2.6
2019-01-13T01:40:34.561Z,2.6
2019-01-13T01:45:37.022Z,2.7
2019-01-13T01:50:39.476Z,2.7
2019-01-13T01:55:41.923Z,2.7
2019-01-13T02:00:44.398Z,2.7
2019-01-13T02:05:46.837Z,2.7
2019-01-13T02:10:49.369Z,2.7
2019-01-13T02:15:51.755Z,2.6
2019-01-13T02:20:54.240Z,2.6
2019-01-13T02:25:56.670Z,2.5
2019-01-13T02:30:59.123Z,2.5
2019-01-13T02:36:01.628Z,2.4
2019-01-13T02:41:04.032Z,2.4
2019-01-13T02:46:06.511Z,2.4
2019-01-13T02:51:08.955Z,2.3
2019-01-13T02:56:11.499Z,2.3
2019-01-13T03:01:13.921Z,2.3
2019-01-13T03:06:16.365Z,2.4
2019-01-13T03:11:18.784Z,2.5
2019-01-13T03:16:21.271Z,2.5
2019-01-13T03:21:23.739Z,2.6
2019-01-13T03:26:26.155Z,2.6
2019-01-13T03:31:28.822Z,2.6
2019-01-13T03:36:31.059Z,2.7
2019-01-13T03:41:33.514Z,2.6
2019-01-13T03:46:36.315Z,2.7
2019-01-13T03:51:38.424Z,2.7
2019-01-13T03:56:40.908Z,2.7
2019-01-13T04:01:43.336Z,2.7
2019-01-13T04:06:45.905Z,2.7
2019-01-13T04:11:48.285Z,2.7
2019-01-13T04:16:50.735Z,2.6
2019-01-13T04:21:53.292Z,2.7
2019-01-13T04:26:55.718Z,2.7
2019-01-13T04:31:58.180Z,2.7
2019-01-13T04:42:03.023Z,2.7
2019-01-13T04:47:05.460Z,2.7
2019-01-13T04:52:07.913Z,2.7
2019-01-13T04:57:10.395Z,2.7
2019-01-13T05:02:12.870Z,2.7
2019-01-13T05:07:15.310Z,2.8
2019-01-13T05:12:17.749Z,2.8
2019-01-13T05:17:20.200Z,2.8
2019-01-13T05:22:22.673Z,2.8
2019-01-13T05:27:25.144Z,2.8
2019-01-13T05:32:27.639Z,2.8
2019-01-13T05:37:30.035Z,2.8
2019-01-13T05:42:32.737Z,2.9
2019-01-13T05:47:34.959Z,2.9
2019-01-13T05:52:37.393Z,2.9
2019-01-13T05:57:39.886Z,2.9
2019-01-13T06:02:42.311Z,2.9
2019-01-13T06:07:44.809Z,2.9
2019-01-13T06:12:47.262Z,2.8
2019-01-13T06:17:49.755Z,2.8
2019-01-13T06:22:52.136Z,2.8
2019-01-13T06:27:54.592Z,2.9
2019-01-13T06:32:57.064Z,2.9
2019-01-13T06:37:59.555Z,2.9
2019-01-13T06:43:01.982Z,2.9
2019-01-13T06:48:04.414Z,2.9
2019-01-13T06:53:06.884Z,2.9
2019-01-13T06:58:09.331Z,2.9
2019-01-13T07:03:11.789Z,2.9
2019-01-13T07:08:14.247Z,2.9
2019-01-13T07:13:16.716Z,2.9
2019-01-13T07:18:19.161Z,3
2019-01-13T07:23:21.617Z,2.9
2019-01-13T07:28:24.177Z,3
2019-01-13T07:33:26.551Z,2.9
2019-01-13T07:38:28.998Z,3
2019-01-13T07:43:31.468Z,3
2019-01-13T07:48:33.913Z,3.1
2019-01-13T07:53:36.360Z,3.1
2019-01-13T07:58:38.864Z,3.2
2019-01-13T08:03:41.273Z,3.2
2019-01-13T08:08:43.778Z,3.3
2019-01-13T08:13:46.241Z,3.3
2019-01-13T08:18:48.702Z,3.4
2019-01-13T08:23:51.122Z,3.5
2019-01-13T08:28:53.560Z,3.5
2019-01-13T08:33:56.042Z,3.6
2019-01-13T08:38:58.486Z,3.6
2019-01-13T08:44:00.930Z,3.7
2019-01-13T08:49:03.394Z,3.8
2019-01-13T08:54:05.872Z,3.7
2019-01-13T08:59:08.316Z,3.6
2019-01-13T09:04:10.754Z,3.6
2019-01-13T09:09:13.217Z,3.6
2019-01-13T09:14:15.786Z,3.7
2019-01-13T09:19:18.204Z,3.7
2019-01-13T09:24:20.709Z,3.8
2019-01-13T09:29:23.065Z,3.8
2019-01-13T09:34:25.548Z,3.9
2019-01-13T09:39:27.972Z,3.9
2019-01-13T09:44:30.419Z,4.1
2019-01-13T09:54:35.358Z,4.1
2019-01-13T09:59:37.816Z,4.2
2019-01-13T10:04:40.247Z,4.3
2019-01-13T10:09:42.708Z,4.3
2019-01-13T10:14:45.178Z,4.3
2019-01-13T10:19:47.941Z,4.3
2019-01-13T10:24:50.084Z,4.3
2019-01-13T10:29:52.552Z,4.3
2019-01-13T10:34:55.003Z,4.2
2019-01-13T10:39:57.476Z,4.3
2019-01-13T10:44:59.914Z,4.2
2019-01-13T10:50:02.451Z,4.2
2019-01-13T10:55:04.851Z,4.1
2019-01-13T11:00:07.381Z,4.1
2019-01-13T11:05:09.763Z,4.2
2019-01-13T11:10:12.264Z,4.3
2019-01-13T11:15:21.196Z,4.5
2019-01-13T11:20:17.187Z,4.6
2019-01-13T11:25:19.608Z,4.6
2019-01-13T11:30:22.060Z,4.7
2019-01-13T11:35:24.543Z,4.9
2019-01-13T11:40:26.978Z,4.9
2019-01-13T11:45:29.474Z,5
2019-01-13T11:50:31.889Z,5.2
2019-01-13T11:55:34.332Z,5.3
2019-01-13T12:00:36.815Z,5.2
2019-01-13T12:05:39.293Z,5.1
2019-01-13T12:10:41.771Z,5
2019-01-13T12:15:44.161Z,4.8
2019-01-13T12:20:46.618Z,4.6
2019-01-13T12:25:52.697Z,4.4
2019-01-13T12:30:51.542Z,4.3
2019-01-13T12:35:53.991Z,4.3
2019-01-13T12:40:56.470Z,4.2
2019-01-13T12:45:58.942Z,4.2
2019-01-13T12:51:01.411Z,4.2
2019-01-13T12:56:03.846Z,4.4
2019-01-13T13:01:06.386Z,4.4
2019-01-13T13:06:08.730Z,4.4
2019-01-13T13:11:11.208Z,4.4
2019-01-13T13:16:13.666Z,4.3
2019-01-13T13:21:16.101Z,4.2
2019-01-13T13:26:18.561Z,4.1
2019-01-13T13:31:21.172Z,4
2019-01-13T13:36:23.545Z,3.9
2019-01-13T13:41:25.937Z,3.9
2019-01-13T13:46:28.402Z,4
2019-01-13T13:51:30.886Z,3.9
2019-01-13T13:56:33.328Z,3.8
2019-01-13T14:01:35.787Z,3.7
2019-01-13T14:06:38.665Z,3.7
2019-01-13T14:11:40.689Z,3.7
2019-01-13T14:16:43.225Z,3.7
2019-01-13T14:21:45.591Z,3.6
2019-01-13T14:26:48.520Z,3.6
2019-01-13T14:31:50.633Z,3.6
2019-01-13T14:36:53.099Z,3.6
2019-01-13T14:41:55.438Z,3.6
2019-01-13T14:46:57.891Z,3.6
2019-01-13T14:52:00.355Z,3.6
2019-01-13T14:57:02.835Z,3.5
2019-01-13T15:02:05.299Z,3.5
2019-01-13T15:07:07.753Z,3.6
2019-01-13T15:12:10.194Z,3.6
2019-01-13T15:17:12.653Z,3.6
2019-01-13T15:22:15.104Z,3.6
2019-01-13T15:27:17.571Z,3.6
2019-01-13T15:32:20.014Z,3.6
2019-01-13T15:37:22.497Z,3.7
2019-01-13T15:42:24.995Z,3.7
2019-01-13T15:47:27.556Z,3.8
2019-01-13T15:52:29.853Z,3.8
2019-01-13T15:57:32.323Z,3.8
2019-01-13T16:02:34.957Z,3.9
2019-01-13T16:07:37.218Z,4
2019-01-13T16:12:39.676Z,4.1
2019-01-13T16:17:42.254Z,4.1
2019-01-13T16:22:44.590Z,4.2
2019-01-13T16:27:47.049Z,4.2
2019-01-13T16:32:49.517Z,4.2
2019-01-13T16:37:51.986Z,4.3
2019-01-13T16:42:54.424Z,4.3
2019-01-13T16:47:56.919Z,4.4
2019-01-13T16:53:00.172Z,4.4
2019-01-13T16:58:01.883Z,4.4
2019-01-13T17:03:04.272Z,4.5
2019-01-13T17:08:06.720Z,4.5
2019-01-13T17:13:09.170Z,4.5
2019-01-13T17:18:11.680Z,4.6
2019-01-13T17:23:14.111Z,4.6
2019-01-13T17:28:16.565Z,4.6
2019-01-13T17:33:19.009Z,4.6
2019-01-13T17:38:21.474Z,4.7
2019-01-13T17:43:23.922Z,4.7
2019-01-13T17:48:26.397Z,4.7
2019-01-13T17:53:28.836Z,4.7
2019-01-13T17:58:31.343Z,4.7
2019-01-13T18:03:33.779Z,4.7
2019-01-13T18:08:36.213Z,4.7
2019-01-13T18:13:38.723Z,4.8
2019-01-13T18:18:41.130Z,4.8
2019-01-13T18:23:43.585Z,4.8
2019-01-13T18:28:46.070Z,4.8
2019-01-13T18:33:48.496Z,4.8
2019-01-13T18:38:50.969Z,4.8
2019-01-13T18:43:53.403Z,4.8
2019-01-13T18:48:55.855Z,4.8
2019-01-13T18:53:58.390Z,4.8
2019-01-13T18:59:00.765Z,4.8
2019-01-13T19:04:03.259Z,4.8
2019-01-13T19:09:05.702Z,4.8
2019-01-13T19:14:08.166Z,4.8
2019-01-13T19:19:10.629Z,4.9
2019-01-13T19:24:13.058Z,4.9
2019-01-13T19:29:15.534Z,4.9
2019-01-13T19:34:18.038Z,5
2019-01-13T19:39:20.423Z,5
2019-01-13T19:44:22.897Z,5
2019-01-13T19:49:25.374Z,5.1
2019-01-13T19:54:27.796Z,5.1
2019-01-13T19:59:30.261Z,5.1
2019-01-13T20:04:32.712Z,5
2019-01-13T20:09:35.259Z,5
2019-01-13T20:14:37.626Z,5
2019-01-13T20:19:40.120Z,5
2019-01-13T20:24:42.540Z,5
2019-01-13T20:29:44.997Z,5.1
2019-01-13T20:34:47.527Z,5.1
2019-01-13T20:39:49.947Z,5.1
2019-01-13T20:49:54.830Z,4.8
2019-01-13T20:54:57.308Z,4.6
2019-01-13T20:59:59.754Z,4.6
2019-01-13T21:05:02.222Z,4.6
2019-01-13T21:10:04.689Z,4.6
2019-01-13T21:15:07.113Z,4.6
2019-01-13T21:20:09.576Z,4.6
2019-01-13T21:25:12.021Z,4.5
2019-01-13T21:30:14.498Z,4.4
2019-01-13T21:35:16.929Z,4.3
2019-01-13T21:40:19.387Z,4.2
2019-01-13T21:45:21.849Z,4.2
2019-01-13T21:50:24.307Z,4.1
2019-01-13T21:55:27.047Z,4
2019-01-13T22:00:29.226Z,3.9
2019-01-13T22:05:31.699Z,3.9
2019-01-13T22:10:34.211Z,3.9
2019-01-13T22:15:36.613Z,3.8
2019-01-13T22:20:39.055Z,3.8
2019-01-13T22:25:41.538Z,3.7
2019-01-13T22:30:43.978Z,3.7
2019-01-13T22:35:48.198Z,3.7
2019-01-13T22:40:48.883Z,3.7
2019-01-13T22:45:51.346Z,3.7
2019-01-13T22:50:53.804Z,3.7
2019-01-13T22:55:56.242Z,3.7
2019-01-13T23:06:01.257Z,3.7
2019-01-13T23:11:03.631Z,3.7
2019-01-13T23:16:06.073Z,3.6
2019-01-13T23:21:08.559Z,3.6
2019-01-13T23:26:11.133Z,3.6
2019-01-13T23:31:13.503Z,3.6
2019-01-13T23:36:15.913Z,3.6
2019-01-13T23:41:18.365Z,3.7
2019-01-13T23:46:20.825Z,3.7
2019-01-13T23:51:23.318Z,3.7
2019-01-13T23:56:25.738Z,3.7
